sensor_id;sensor_type;location;lat;lon;timestamp;temperature;humidity
18932;DHT22;9598;50.954;3.112;2024-03-25T00:01:00;8.70;99.90
18932;DHT22;9598;50.954;3.112;2024-03-25T00:06:03;8.60;99.90
18932;DHT22;9598;50.954;3.112;2024-03-25T00:11:07;8.60;99.90
18932;DHT22;9598;50.954;3.112;2024-03-25T00:16:09;8.50;99.90
18932;DHT22;9598;50.954;3.112;2024-03-25T00:21:11;8.40;99.90
18932;DHT22;9598;50.954;3.112;2024-03-25T00:26:15;8.30;99.90
18932;DHT22;9598;50.954;3.112;2024-03-25T00:31:18;8.30;99.90
18932;DHT22;9598;50.954;3.112;2024-03-25T00:36:20;8.30;99.90
18932;DHT22;9598;50.954;3.112;2024-03-25T00:41:24;8.30;99.90
18932;DHT22;9598;50.954;3.112;2024-03-25T00:46:27;8.30;99.90
18932;DHT22;9598;50.954;3.112;2024-03-25T00:51:30;8.20;99.90
18932;DHT22;9598;50.954;3.112;2024-03-25T00:56:33;8.20;99.90
18932;DHT22;9598;50.954;3.112;2024-03-25T01:01:36;8.10;99.90
18932;DHT22;9598;50.954;3.112;2024-03-25T01:06:38;8.10;99.90
18932;DHT22;9598;50.954;3.112;2024-03-25T01:11:41;8.00;99.90
18932;DHT22;9598;50.954;3.112;2024-03-25T01:16:43;8.10;99.90
18932;DHT22;9598;50.954;3.112;2024-03-25T01:21:45;8.00;99.90
18932;DHT22;9598;50.954;3.112;2024-03-25T01:26:49;8.00;99.90
18932;DHT22;9598;50.954;3.112;2024-03-25T01:31:51;8.00;99.90
18932;DHT22;9598;50.954;3.112;2024-03-25T01:36:54;7.90;99.90
18932;DHT22;9598;50.954;3.112;2024-03-25T01:41:57;7.90;99.90
18932;DHT22;9598;50.954;3.112;2024-03-25T01:47:00;7.90;99.90
18932;DHT22;9598;50.954;3.112;2024-03-25T01:52:02;7.80;99.90
18932;DHT22;9598;50.954;3.112;2024-03-25T01:57:06;7.80;99.90
18932;DHT22;9598;50.954;3.112;2024-03-25T02:02:09;7.80;99.90
18932;DHT22;9598;50.954;3.112;2024-03-25T02:07:13;7.70;99.90
18932;DHT22;9598;50.954;3.112;2024-03-25T02:12:17;7.70;99.90
18932;DHT22;9598;50.954;3.112;2024-03-25T02:17:19;7.70;99.90
18932;DHT22;9598;50.954;3.112;2024-03-25T02:22:21;7.70;99.90
18932;DHT22;9598;50.954;3.112;2024-03-25T02:27:25;7.60;99.90
18932;DHT22;9598;50.954;3.112;2024-03-25T02:32:28;7.60;99.90
18932;DHT22;9598;50.954;3.112;2024-03-25T02:37:31;7.60;99.90
18932;DHT22;9598;50.954;3.112;2024-03-25T02:42:36;7.60;99.90
18932;DHT22;9598;50.954;3.112;2024-03-25T02:47:40;7.60;99.90
18932;DHT22;9598;50.954;3.112;2024-03-25T02:52:42;7.60;99.90
18932;DHT22;9598;50.954;3.112;2024-03-25T02:57:46;7.60;99.90
18932;DHT22;9598;50.954;3.112;2024-03-25T03:02:48;7.50;99.90
18932;DHT22;9598;50.954;3.112;2024-03-25T03:07:50;7.50;99.90
18932;DHT22;9598;50.954;3.112;2024-03-25T03:12:53;7.50;99.90
18932;DHT22;9598;50.954;3.112;2024-03-25T03:17:55;7.50;99.90
18932;DHT22;9598;50.954;3.112;2024-03-25T03:22:58;7.40;99.90
18932;DHT22;9598;50.954;3.112;2024-03-25T03:28:01;7.40;99.90
18932;DHT22;9598;50.954;3.112;2024-03-25T03:33:04;7.40;99.90
18932;DHT22;9598;50.954;3.112;2024-03-25T03:38:06;7.30;99.90
18932;DHT22;9598;50.954;3.112;2024-03-25T03:43:10;7.30;99.90
18932;DHT22;9598;50.954;3.112;2024-03-25T03:48:12;7.30;99.90
18932;DHT22;9598;50.954;3.112;2024-03-25T03:53:14;7.20;99.90
18932;DHT22;9598;50.954;3.112;2024-03-25T03:58:17;7.20;99.90
18932;DHT22;9598;50.954;3.112;2024-03-25T04:03:20;7.20;99.90
18932;DHT22;9598;50.954;3.112;2024-03-25T04:08:22;7.10;99.90
18932;DHT22;9598;50.954;3.112;2024-03-25T04:13:25;7.10;99.90
18932;DHT22;9598;50.954;3.112;2024-03-25T04:18:27;7.10;99.90
18932;DHT22;9598;50.954;3.112;2024-03-25T04:23:30;7.00;99.90
18932;DHT22;9598;50.954;3.112;2024-03-25T04:28:33;7.00;99.90
18932;DHT22;9598;50.954;3.112;2024-03-25T04:33:36;7.00;99.90
18932;DHT22;9598;50.954;3.112;2024-03-25T04:38:38;7.00;99.90
18932;DHT22;9598;50.954;3.112;2024-03-25T04:43:40;7.00;99.90
18932;DHT22;9598;50.954;3.112;2024-03-25T04:48:41;7.00;99.90
18932;DHT22;9598;50.954;3.112;2024-03-25T04:53:42;7.00;99.90
18932;DHT22;9598;50.954;3.112;2024-03-25T04:58:45;7.00;99.90
18932;DHT22;9598;50.954;3.112;2024-03-25T05:03:46;7.00;99.90
18932;DHT22;9598;50.954;3.112;2024-03-25T05:08:47;7.00;99.90
18932;DHT22;9598;50.954;3.112;2024-03-25T05:13:50;7.00;99.90
18932;DHT22;9598;50.954;3.112;2024-03-25T05:18:51;7.00;99.90
18932;DHT22;9598;50.954;3.112;2024-03-25T05:23:52;7.00;99.90
18932;DHT22;9598;50.954;3.112;2024-03-25T05:28:55;7.10;99.90
18932;DHT22;9598;50.954;3.112;2024-03-25T05:33:56;7.10;99.90
18932;DHT22;9598;50.954;3.112;2024-03-25T05:38:58;7.10;99.90
18932;DHT22;9598;50.954;3.112;2024-03-25T05:44:00;7.10;99.90
18932;DHT22;9598;50.954;3.112;2024-03-25T05:49:02;7.10;99.90
18932;DHT22;9598;50.954;3.112;2024-03-25T05:54:03;7.10;99.90
18932;DHT22;9598;50.954;3.112;2024-03-25T05:59:06;7.00;99.90
18932;DHT22;9598;50.954;3.112;2024-03-25T06:04:07;7.00;99.90
18932;DHT22;9598;50.954;3.112;2024-03-25T06:09:08;7.00;99.90
18932;DHT22;9598;50.954;3.112;2024-03-25T06:14:11;7.00;99.90
18932;DHT22;9598;50.954;3.112;2024-03-25T06:19:12;7.00;99.90
18932;DHT22;9598;50.954;3.112;2024-03-25T06:24:13;7.00;99.90
18932;DHT22;9598;50.954;3.112;2024-03-25T06:29:16;7.00;99.90
18932;DHT22;9598;50.954;3.112;2024-03-25T06:34:17;7.00;99.90
18932;DHT22;9598;50.954;3.112;2024-03-25T06:39:18;7.00;99.90
18932;DHT22;9598;50.954;3.112;2024-03-25T06:44:20;7.00;99.90
18932;DHT22;9598;50.954;3.112;2024-03-25T06:49:22;7.10;99.90
18932;DHT22;9598;50.954;3.112;2024-03-25T06:54:23;7.10;99.90
18932;DHT22;9598;50.954;3.112;2024-03-25T06:59:26;7.10;99.90
18932;DHT22;9598;50.954;3.112;2024-03-25T07:04:27;7.10;99.90
18932;DHT22;9598;50.954;3.112;2024-03-25T07:09:28;7.20;99.90
18932;DHT22;9598;50.954;3.112;2024-03-25T07:14:31;7.20;99.90
18932;DHT22;9598;50.954;3.112;2024-03-25T07:19:32;7.30;99.90
18932;DHT22;9598;50.954;3.112;2024-03-25T07:24:33;7.30;99.90
18932;DHT22;9598;50.954;3.112;2024-03-25T07:29:36;7.30;99.90
18932;DHT22;9598;50.954;3.112;2024-03-25T07:34:37;7.40;99.90
18932;DHT22;9598;50.954;3.112;2024-03-25T07:39:38;7.50;99.90
18932;DHT22;9598;50.954;3.112;2024-03-25T07:44:40;7.50;99.90
18932;DHT22;9598;50.954;3.112;2024-03-25T07:49:42;7.60;99.90
18932;DHT22;9598;50.954;3.112;2024-03-25T07:54:43;7.60;99.90
18932;DHT22;9598;50.954;3.112;2024-03-25T07:59:45;7.70;99.90
18932;DHT22;9598;50.954;3.112;2024-03-25T08:04:46;7.70;99.90
18932;DHT22;9598;50.954;3.112;2024-03-25T08:09:48;7.90;99.90
18932;DHT22;9598;50.954;3.112;2024-03-25T08:14:50;7.90;99.90
18932;DHT22;9598;50.954;3.112;2024-03-25T08:19:51;8.00;99.90
18932;DHT22;9598;50.954;3.112;2024-03-25T08:24:52;8.10;99.90
18932;DHT22;9598;50.954;3.112;2024-03-25T08:29:55;8.20;99.90
18932;DHT22;9598;50.954;3.112;2024-03-25T08:34:56;8.20;99.90
18932;DHT22;9598;50.954;3.112;2024-03-25T08:39:57;8.20;99.90
18932;DHT22;9598;50.954;3.112;2024-03-25T08:45:00;8.30;99.90
18932;DHT22;9598;50.954;3.112;2024-03-25T08:50:01;8.30;99.90
18932;DHT22;9598;50.954;3.112;2024-03-25T08:55:03;8.30;99.90
18932;DHT22;9598;50.954;3.112;2024-03-25T09:00:07;8.40;99.90
18932;DHT22;9598;50.954;3.112;2024-03-25T09:05:09;8.40;99.90
18932;DHT22;9598;50.954;3.112;2024-03-25T09:10:10;8.40;99.90
18932;DHT22;9598;50.954;3.112;2024-03-25T09:15:32;8.50;99.90
18932;DHT22;9598;50.954;3.112;2024-03-25T09:20:34;8.60;99.90
18932;DHT22;9598;50.954;3.112;2024-03-25T09:25:35;8.70;99.90
18932;DHT22;9598;50.954;3.112;2024-03-25T09:30:38;8.70;99.90
18932;DHT22;9598;50.954;3.112;2024-03-25T09:35:39;8.70;99.90
18932;DHT22;9598;50.954;3.112;2024-03-25T09:40:40;8.80;99.90
18932;DHT22;9598;50.954;3.112;2024-03-25T09:45:45;8.90;99.90
18932;DHT22;9598;50.954;3.112;2024-03-25T09:50:49;9.00;99.90
18932;DHT22;9598;50.954;3.112;2024-03-25T09:55:51;9.00;99.90
18932;DHT22;9598;50.954;3.112;2024-03-25T10:00:54;9.00;99.90
18932;DHT22;9598;50.954;3.112;2024-03-25T10:05:55;9.10;99.90
18932;DHT22;9598;50.954;3.112;2024-03-25T10:10:56;9.20;99.90
18932;DHT22;9598;50.954;3.112;2024-03-25T10:15:59;9.30;99.90
18932;DHT22;9598;50.954;3.112;2024-03-25T10:21:00;9.40;99.90
18932;DHT22;9598;50.954;3.112;2024-03-25T10:26:01;9.40;99.90
18932;DHT22;9598;50.954;3.112;2024-03-25T10:31:05;9.50;99.90
18932;DHT22;9598;50.954;3.112;2024-03-25T10:36:07;9.70;99.90
18932;DHT22;9598;50.954;3.112;2024-03-25T10:41:13;9.80;99.90
18932;DHT22;9598;50.954;3.112;2024-03-25T10:46:20;10.10;99.90
18932;DHT22;9598;50.954;3.112;2024-03-25T10:51:23;10.40;99.90
18932;DHT22;9598;50.954;3.112;2024-03-25T10:56:25;10.60;99.90
18932;DHT22;9598;50.954;3.112;2024-03-25T11:01:29;10.90;99.90
18932;DHT22;9598;50.954;3.112;2024-03-25T11:06:32;11.10;99.90
18932;DHT22;9598;50.954;3.112;2024-03-25T11:11:33;11.30;99.90
18932;DHT22;9598;50.954;3.112;2024-03-25T11:16:36;11.50;99.90
18932;DHT22;9598;50.954;3.112;2024-03-25T11:21:38;11.70;99.90
18932;DHT22;9598;50.954;3.112;2024-03-25T11:26:42;11.90;99.90
18932;DHT22;9598;50.954;3.112;2024-03-25T11:31:45;12.10;99.90
18932;DHT22;9598;50.954;3.112;2024-03-25T11:36:46;12.20;99.90
18932;DHT22;9598;50.954;3.112;2024-03-25T11:41:48;12.40;99.90
18932;DHT22;9598;50.954;3.112;2024-03-25T11:46:51;12.60;99.90
18932;DHT22;9598;50.954;3.112;2024-03-25T11:51:53;12.70;99.90
18932;DHT22;9598;50.954;3.112;2024-03-25T11:56:55;12.80;99.90
18932;DHT22;9598;50.954;3.112;2024-03-25T12:01:57;13.00;99.90
18932;DHT22;9598;50.954;3.112;2024-03-25T12:06:59;13.10;99.90
18932;DHT22;9598;50.954;3.112;2024-03-25T12:12:00;13.10;99.90
18932;DHT22;9598;50.954;3.112;2024-03-25T12:17:03;13.10;99.90
18932;DHT22;9598;50.954;3.112;2024-03-25T12:22:06;13.10;99.90
18932;DHT22;9598;50.954;3.112;2024-03-25T12:27:08;13.20;99.90
18932;DHT22;9598;50.954;3.112;2024-03-25T12:32:11;13.30;99.90
18932;DHT22;9598;50.954;3.112;2024-03-25T12:37:15;13.50;99.90
18932;DHT22;9598;50.954;3.112;2024-03-25T12:42:16;13.60;99.90
18932;DHT22;9598;50.954;3.112;2024-03-25T12:47:19;13.60;99.90
18932;DHT22;9598;50.954;3.112;2024-03-25T12:52:20;13.60;99.90
18932;DHT22;9598;50.954;3.112;2024-03-25T12:57:22;13.50;99.90
18932;DHT22;9598;50.954;3.112;2024-03-25T13:02:24;13.60;99.90
18932;DHT22;9598;50.954;3.112;2024-03-25T13:07:25;13.80;99.90
18932;DHT22;9598;50.954;3.112;2024-03-25T13:12:27;13.80;99.90
18932;DHT22;9598;50.954;3.112;2024-03-25T13:17:29;13.90;99.90
18932;DHT22;9598;50.954;3.112;2024-03-25T13:22:31;14.10;99.90
18932;DHT22;9598;50.954;3.112;2024-03-25T13:27:32;14.10;99.90
18932;DHT22;9598;50.954;3.112;2024-03-25T13:32:35;14.00;99.90
18932;DHT22;9598;50.954;3.112;2024-03-25T13:37:36;14.00;99.90
18932;DHT22;9598;50.954;3.112;2024-03-25T13:42:37;13.90;99.90
18932;DHT22;9598;50.954;3.112;2024-03-25T13:47:40;13.80;99.90
18932;DHT22;9598;50.954;3.112;2024-03-25T13:52:41;13.90;99.90
18932;DHT22;9598;50.954;3.112;2024-03-25T13:57:43;14.00;99.90
18932;DHT22;9598;50.954;3.112;2024-03-25T14:02:46;14.00;99.90
18932;DHT22;9598;50.954;3.112;2024-03-25T14:07:47;14.00;99.90
18932;DHT22;9598;50.954;3.112;2024-03-25T14:12:48;14.00;99.90
18932;DHT22;9598;50.954;3.112;2024-03-25T14:17:51;14.00;99.90
18932;DHT22;9598;50.954;3.112;2024-03-25T14:22:52;14.00;99.90
18932;DHT22;9598;50.954;3.112;2024-03-25T14:27:54;14.00;99.90
18932;DHT22;9598;50.954;3.112;2024-03-25T14:32:56;13.90;99.90
18932;DHT22;9598;50.954;3.112;2024-03-25T14:37:57;14.00;99.90
18932;DHT22;9598;50.954;3.112;2024-03-25T14:42:59;13.90;99.90
18932;DHT22;9598;50.954;3.112;2024-03-25T14:48:02;13.90;99.90
18932;DHT22;9598;50.954;3.112;2024-03-25T14:53:04;13.90;99.90
18932;DHT22;9598;50.954;3.112;2024-03-25T14:58:05;13.90;99.90
18932;DHT22;9598;50.954;3.112;2024-03-25T15:03:08;13.80;99.90
18932;DHT22;9598;50.954;3.112;2024-03-25T15:08:09;13.80;99.90
18932;DHT22;9598;50.954;3.112;2024-03-25T15:13:10;13.90;99.90
18932;DHT22;9598;50.954;3.112;2024-03-25T15:18:13;13.80;99.90
18932;DHT22;9598;50.954;3.112;2024-03-25T15:23:14;13.90;99.90
18932;DHT22;9598;50.954;3.112;2024-03-25T15:28:15;13.80;99.90
18932;DHT22;9598;50.954;3.112;2024-03-25T15:33:18;13.80;99.90
18932;DHT22;9598;50.954;3.112;2024-03-25T15:38:19;13.80;99.90
18932;DHT22;9598;50.954;3.112;2024-03-25T15:43:20;13.70;99.90
18932;DHT22;9598;50.954;3.112;2024-03-25T15:48:23;13.70;99.90
18932;DHT22;9598;50.954;3.112;2024-03-25T15:53:25;13.60;99.90
18932;DHT22;9598;50.954;3.112;2024-03-25T15:58:26;13.50;99.90
18932;DHT22;9598;50.954;3.112;2024-03-25T16:03:29;13.50;99.90
18932;DHT22;9598;50.954;3.112;2024-03-25T16:08:30;13.40;99.90
18932;DHT22;9598;50.954;3.112;2024-03-25T16:13:32;13.50;99.90
18932;DHT22;9598;50.954;3.112;2024-03-25T16:18:34;13.40;99.90
18932;DHT22;9598;50.954;3.112;2024-03-25T16:23:36;13.40;99.90
18932;DHT22;9598;50.954;3.112;2024-03-25T16:28:37;13.40;99.90
18932;DHT22;9598;50.954;3.112;2024-03-25T16:33:40;13.50;99.90
18932;DHT22;9598;50.954;3.112;2024-03-25T16:38:41;13.40;99.90
18932;DHT22;9598;50.954;3.112;2024-03-25T16:43:42;13.40;99.90
18932;DHT22;9598;50.954;3.112;2024-03-25T16:48:45;13.30;99.90
18932;DHT22;9598;50.954;3.112;2024-03-25T16:53:47;13.20;99.90
18932;DHT22;9598;50.954;3.112;2024-03-25T16:58:48;13.20;99.90
18932;DHT22;9598;50.954;3.112;2024-03-25T17:03:50;13.10;99.90
18932;DHT22;9598;50.954;3.112;2024-03-25T17:08:52;13.20;99.90
18932;DHT22;9598;50.954;3.112;2024-03-25T17:13:53;13.20;99.90
18932;DHT22;9598;50.954;3.112;2024-03-25T17:18:56;13.20;99.90
18932;DHT22;9598;50.954;3.112;2024-03-25T17:23:57;13.20;99.90
18932;DHT22;9598;50.954;3.112;2024-03-25T17:28:58;13.10;99.90
18932;DHT22;9598;50.954;3.112;2024-03-25T17:34:01;13.10;99.90
18932;DHT22;9598;50.954;3.112;2024-03-25T17:39:03;13.00;99.90
18932;DHT22;9598;50.954;3.112;2024-03-25T17:44:05;13.00;99.90
18932;DHT22;9598;50.954;3.112;2024-03-25T17:49:07;13.10;99.90
18932;DHT22;9598;50.954;3.112;2024-03-25T17:54:09;13.00;99.90
18932;DHT22;9598;50.954;3.112;2024-03-25T17:59:10;13.00;99.90
18932;DHT22;9598;50.954;3.112;2024-03-25T18:04:13;13.00;99.90
18932;DHT22;9598;50.954;3.112;2024-03-25T18:09:14;12.90;99.90
18932;DHT22;9598;50.954;3.112;2024-03-25T18:14:15;12.90;99.90
18932;DHT22;9598;50.954;3.112;2024-03-25T18:19:18;12.80;99.90
18932;DHT22;9598;50.954;3.112;2024-03-25T18:24:19;12.80;99.90
18932;DHT22;9598;50.954;3.112;2024-03-25T18:29:21;12.70;99.90
18932;DHT22;9598;50.954;3.112;2024-03-25T18:34:24;12.60;99.90
18932;DHT22;9598;50.954;3.112;2024-03-25T18:39:25;12.60;99.90
18932;DHT22;9598;50.954;3.112;2024-03-25T18:44:26;12.50;99.90
18932;DHT22;9598;50.954;3.112;2024-03-25T18:49:29;12.50;99.90
18932;DHT22;9598;50.954;3.112;2024-03-25T18:54:31;12.40;99.90
18932;DHT22;9598;50.954;3.112;2024-03-25T18:59:34;12.30;99.90
18932;DHT22;9598;50.954;3.112;2024-03-25T19:04:37;12.20;99.90
18932;DHT22;9598;50.954;3.112;2024-03-25T19:09:39;12.20;99.90
18932;DHT22;9598;50.954;3.112;2024-03-25T19:14:40;12.10;99.90
18932;DHT22;9598;50.954;3.112;2024-03-25T19:19:43;12.20;99.90
18932;DHT22;9598;50.954;3.112;2024-03-25T19:24:44;12.10;99.90
18932;DHT22;9598;50.954;3.112;2024-03-25T19:29:45;12.10;99.90
18932;DHT22;9598;50.954;3.112;2024-03-25T19:34:48;12.00;99.90
18932;DHT22;9598;50.954;3.112;2024-03-25T19:39:50;12.00;99.90
18932;DHT22;9598;50.954;3.112;2024-03-25T19:44:51;11.90;99.90
18932;DHT22;9598;50.954;3.112;2024-03-25T19:49:54;11.90;99.90
18932;DHT22;9598;50.954;3.112;2024-03-25T19:54:56;11.80;99.90
18932;DHT22;9598;50.954;3.112;2024-03-25T19:59:57;11.80;99.90
18932;DHT22;9598;50.954;3.112;2024-03-25T20:05:00;11.70;99.90
18932;DHT22;9598;50.954;3.112;2024-03-25T20:10:01;11.70;99.90
18932;DHT22;9598;50.954;3.112;2024-03-25T20:15:03;11.60;99.90
18932;DHT22;9598;50.954;3.112;2024-03-25T20:20:07;11.60;99.90
18932;DHT22;9598;50.954;3.112;2024-03-25T20:25:09;11.50;99.90
18932;DHT22;9598;50.954;3.112;2024-03-25T20:30:11;11.50;99.90
18932;DHT22;9598;50.954;3.112;2024-03-25T20:35:13;11.40;99.90
18932;DHT22;9598;50.954;3.112;2024-03-25T20:40:15;11.30;99.90
18932;DHT22;9598;50.954;3.112;2024-03-25T20:45:16;11.20;99.90
18932;DHT22;9598;50.954;3.112;2024-03-25T20:50:19;11.20;99.90
18932;DHT22;9598;50.954;3.112;2024-03-25T20:55:20;11.20;99.90
18932;DHT22;9598;50.954;3.112;2024-03-25T21:00:21;11.20;99.90
18932;DHT22;9598;50.954;3.112;2024-03-25T21:05:24;11.10;99.90
18932;DHT22;9598;50.954;3.112;2024-03-25T21:10:25;11.10;99.90
18932;DHT22;9598;50.954;3.112;2024-03-25T21:15:27;11.10;99.90
18932;DHT22;9598;50.954;3.112;2024-03-25T21:20:29;11.00;99.90
18932;DHT22;9598;50.954;3.112;2024-03-25T21:25:31;11.00;99.90
18932;DHT22;9598;50.954;3.112;2024-03-25T21:30:32;11.00;99.90
18932;DHT22;9598;50.954;3.112;2024-03-25T21:35:36;11.00;99.90
18932;DHT22;9598;50.954;3.112;2024-03-25T21:40:38;11.00;99.90
18932;DHT22;9598;50.954;3.112;2024-03-25T21:45:39;10.90;99.90
18932;DHT22;9598;50.954;3.112;2024-03-25T21:50:52;10.90;99.90
18932;DHT22;9598;50.954;3.112;2024-03-25T21:55:54;10.80;99.90
18932;DHT22;9598;50.954;3.112;2024-03-25T22:00:56;10.80;99.90
18932;DHT22;9598;50.954;3.112;2024-03-25T22:05:59;10.70;99.90
18932;DHT22;9598;50.954;3.112;2024-03-25T22:11:00;10.60;99.90
18932;DHT22;9598;50.954;3.112;2024-03-25T22:16:02;10.60;99.90
18932;DHT22;9598;50.954;3.112;2024-03-25T22:21:05;10.60;99.90
18932;DHT22;9598;50.954;3.112;2024-03-25T22:26:07;10.60;99.90
18932;DHT22;9598;50.954;3.112;2024-03-25T22:31:09;10.60;99.90
18932;DHT22;9598;50.954;3.112;2024-03-25T22:36:11;10.50;99.90
18932;DHT22;9598;50.954;3.112;2024-03-25T22:41:12;10.40;99.90
18932;DHT22;9598;50.954;3.112;2024-03-25T22:46:14;10.40;99.90
18932;DHT22;9598;50.954;3.112;2024-03-25T22:51:16;10.30;99.90
18932;DHT22;9598;50.954;3.112;2024-03-25T22:56:18;10.30;99.90
18932;DHT22;9598;50.954;3.112;2024-03-25T23:01:19;10.30;99.90
18932;DHT22;9598;50.954;3.112;2024-03-25T23:06:21;10.20;99.90
18932;DHT22;9598;50.954;3.112;2024-03-25T23:11:22;10.20;99.90
18932;DHT22;9598;50.954;3.112;2024-03-25T23:16:24;10.20;99.90
18932;DHT22;9598;50.954;3.112;2024-03-25T23:21:27;10.10;99.90
18932;DHT22;9598;50.954;3.112;2024-03-25T23:26:29;10.10;99.90
18932;DHT22;9598;50.954;3.112;2024-03-25T23:31:30;10.00;99.90
18932;DHT22;9598;50.954;3.112;2024-03-25T23:36:33;9.90;99.90
18932;DHT22;9598;50.954;3.112;2024-03-25T23:41:34;9.80;99.90
18932;DHT22;9598;50.954;3.112;2024-03-25T23:46:36;9.80;99.90
18932;DHT22;9598;50.954;3.112;2024-03-25T23:51:38;9.80;99.90
18932;DHT22;9598;50.954;3.112;2024-03-25T23:56:39;9.70;99.90
